KLM35N EHAM-EGNT
Flight info
| Callsign | KLM35N |
|---|---|
| Flight time | 0h 59m |
| Altitude | 32000 |
| Route | BERGI L602 NALAX L46 RIMTO |
| Aircraft | B738/M-SDE2E3FGHIRWXY/LB1 |
Departure
| Time | 2026-04-17 13:00 |
|---|---|
| Airport | Amsterdam Airport Schiphol (EHAM) |
Arrival
| Time | 2026-04-17 13:59 |
|---|---|
| Airport | Newcastle International Airport (EGNT) |
| Time | Latitude | Longitude | Altitude | Speed | Heading |
|---|---|---|---|---|---|
| 2026-04-17 12:29 | 52.30896 | 4.77367 | -3 ft | 0 kts | 2° |
| 2026-04-17 12:52 | 52.30873 | 4.77365 | -3 ft | 4 kts | 7° |
| 2026-04-17 12:52 | 52.30849 | 4.77353 | -3 ft | 4 kts | 45° |
| 2026-04-17 12:52 | 52.30843 | 4.77337 | -3 ft | 0 kts | 81° |
| 2026-04-17 12:56 | 52.30842 | 4.77351 | -3 ft | 3 kts | 90° |
| 2026-04-17 12:56 | 52.30836 | 4.77427 | -3 ft | 10 kts | 110° |
| 2026-04-17 12:57 | 52.30760 | 4.77459 | -3 ft | 15 kts | 182° |
| 2026-04-17 12:57 | 52.30645 | 4.77479 | -3 ft | 19 kts | 154° |
| 2026-04-17 12:57 | 52.30515 | 4.77589 | -3 ft | 23 kts | 152° |
| 2026-04-17 12:57 | 52.30427 | 4.77646 | -3 ft | 6 kts | 196° |
| 2026-04-17 12:58 | 52.30405 | 4.77608 | -3 ft | 0 kts | 238° |
| 2026-04-17 12:59 | 52.30398 | 4.77591 | -3 ft | 9 kts | 238° |
| 2026-04-17 12:59 | 52.30326 | 4.77406 | -4 ft | 32 kts | 237° |
| 2026-04-17 12:59 | 52.30074 | 4.76748 | -3 ft | 104 kts | 238° |
| 2026-04-17 12:59 | 52.29573 | 4.75465 | 33 ft | 159 kts | 236° |
| 2026-04-17 13:00 | 52.28982 | 4.73843 | 746 ft | 164 kts | 239° |
| 2026-04-17 13:00 | 52.28420 | 4.72307 | 1758 ft | 155 kts | 236° |
| 2026-04-17 13:00 | 52.27817 | 4.70771 | 2344 ft | 173 kts | 233° |
| 2026-04-17 13:00 | 52.26984 | 4.69166 | 2584 ft | 201 kts | 224° |
| 2026-04-17 13:01 | 52.25919 | 4.67466 | 2892 ft | 220 kts | 223° |
| 2026-04-17 13:01 | 52.24796 | 4.65693 | 3435 ft | 229 kts | 225° |
| 2026-04-17 13:01 | 52.23999 | 4.63428 | 4012 ft | 241 kts | 248° |
| 2026-04-17 13:01 | 52.23441 | 4.60756 | 4599 ft | 253 kts | 249° |
| 2026-04-17 13:02 | 52.23109 | 4.57954 | 5382 ft | 261 kts | 269° |
| 2026-04-17 13:02 | 52.23593 | 4.55029 | 5946 ft | 272 kts | 298° |
| 2026-04-17 13:02 | 52.24890 | 4.52821 | 6208 ft | 279 kts | 322° |
| 2026-04-17 13:02 | 52.26546 | 4.51121 | 6217 ft | 283 kts | 327° |
| 2026-04-17 13:03 | 52.28259 | 4.49499 | 6622 ft | 286 kts | 327° |
| 2026-04-17 13:03 | 52.29970 | 4.47859 | 7498 ft | 284 kts | 326° |
| 2026-04-17 13:03 | 52.31667 | 4.46197 | 8339 ft | 285 kts | 325° |
| 2026-04-17 13:03 | 52.33366 | 4.44511 | 9156 ft | 286 kts | 325° |
| 2026-04-17 13:04 | 52.35079 | 4.42817 | 9962 ft | 289 kts | 327° |
| 2026-04-17 13:04 | 52.37020 | 4.41780 | 10566 ft | 304 kts | 348° |
| 2026-04-17 13:04 | 52.39200 | 4.41368 | 10757 ft | 328 kts | 351° |
| 2026-04-17 13:04 | 52.41548 | 4.41033 | 10935 ft | 350 kts | 352° |
| 2026-04-17 13:05 | 52.44044 | 4.40693 | 11095 ft | 370 kts | 352° |
| 2026-04-17 13:05 | 52.46671 | 4.40324 | 11336 ft | 386 kts | 352° |
| 2026-04-17 13:05 | 52.49366 | 4.39930 | 11859 ft | 391 kts | 352° |
| 2026-04-17 13:05 | 52.52087 | 4.39519 | 12534 ft | 393 kts | 352° |
| 2026-04-17 13:06 | 52.54819 | 4.39095 | 13199 ft | 397 kts | 352° |
| 2026-04-17 13:06 | 52.57583 | 4.38659 | 13849 ft | 401 kts | 352° |
| 2026-04-17 13:06 | 52.60371 | 4.38216 | 14458 ft | 404 kts | 352° |
| 2026-04-17 13:06 | 52.63185 | 4.37768 | 15078 ft | 408 kts | 352° |
| 2026-04-17 13:07 | 52.66020 | 4.37317 | 15715 ft | 411 kts | 351° |
| 2026-04-17 13:07 | 52.68877 | 4.36861 | 16324 ft | 415 kts | 351° |
| 2026-04-17 13:07 | 52.71740 | 4.36228 | 16896 ft | 415 kts | 342° |
| 2026-04-17 13:07 | 52.74345 | 4.34281 | 17469 ft | 410 kts | 322° |
| 2026-04-17 13:08 | 52.76457 | 4.31172 | 18096 ft | 406 kts | 306° |
| 2026-04-17 13:08 | 52.77978 | 4.27256 | 18669 ft | 405 kts | 296° |
| 2026-04-17 13:08 | 52.79341 | 4.23172 | 19178 ft | 408 kts | 295° |
| 2026-04-17 13:08 | 52.80695 | 4.19035 | 19698 ft | 410 kts | 295° |
| 2026-04-17 13:09 | 52.82057 | 4.14881 | 20222 ft | 412 kts | 295° |
| 2026-04-17 13:09 | 52.83401 | 4.10680 | 20750 ft | 413 kts | 291° |
| 2026-04-17 13:09 | 52.84414 | 4.06249 | 21280 ft | 412 kts | 286° |
| 2026-04-17 13:09 | 52.85309 | 4.01745 | 21795 ft | 413 kts | 285° |
| 2026-04-17 13:10 | 52.86188 | 3.97204 | 22279 ft | 415 kts | 285° |
| 2026-04-17 13:10 | 52.87071 | 3.92636 | 22746 ft | 418 kts | 285° |
| 2026-04-17 13:10 | 52.87964 | 3.88050 | 23198 ft | 420 kts | 285° |
| 2026-04-17 13:10 | 52.88872 | 3.83433 | 23621 ft | 423 kts | 285° |
| 2026-04-17 13:11 | 52.89790 | 3.78794 | 24002 ft | 425 kts | 285° |
| 2026-04-17 13:11 | 52.90715 | 3.74134 | 24366 ft | 427 kts | 285° |
| 2026-04-17 13:11 | 52.91645 | 3.69457 | 24744 ft | 428 kts | 285° |
| 2026-04-17 13:11 | 52.92578 | 3.64758 | 25119 ft | 430 kts | 285° |
| 2026-04-17 13:12 | 52.93512 | 3.60046 | 25468 ft | 431 kts | 285° |
| 2026-04-17 13:12 | 52.95385 | 3.50558 | 26143 ft | 434 kts | 285° |
| 2026-04-17 13:12 | 52.96322 | 3.45788 | 26471 ft | 436 kts | 285° |
| 2026-04-17 13:13 | 52.97261 | 3.41001 | 26793 ft | 437 kts | 285° |
| 2026-04-17 13:13 | 52.98201 | 3.36198 | 27112 ft | 439 kts | 285° |
| 2026-04-17 13:13 | 52.99141 | 3.31377 | 27490 ft | 438 kts | 285° |
| 2026-04-17 13:13 | 53.00074 | 3.26588 | 28007 ft | 435 kts | 285° |
| 2026-04-17 13:14 | 53.00999 | 3.21827 | 28557 ft | 431 kts | 284° |
| 2026-04-17 13:14 | 53.01901 | 3.17175 | 29049 ft | 428 kts | 284° |
| 2026-04-17 13:14 | 53.02809 | 3.12474 | 29491 ft | 427 kts | 284° |
| 2026-04-17 13:14 | 53.03714 | 3.07777 | 29959 ft | 426 kts | 284° |
| 2026-04-17 13:15 | 53.04612 | 3.03106 | 30419 ft | 423 kts | 284° |
| 2026-04-17 13:15 | 53.05503 | 2.98458 | 30810 ft | 421 kts | 284° |
| 2026-04-17 13:15 | 53.06390 | 2.93818 | 31155 ft | 421 kts | 284° |
| 2026-04-17 13:15 | 53.07274 | 2.89186 | 31490 ft | 420 kts | 284° |
| 2026-04-17 13:16 | 53.08154 | 2.84558 | 31829 ft | 419 kts | 284° |
| 2026-04-17 13:16 | 53.09030 | 2.79945 | 32144 ft | 419 kts | 284° |
| 2026-04-17 13:16 | 53.10788 | 2.70645 | 32172 ft | 422 kts | 284° |
| 2026-04-17 13:17 | 53.12534 | 2.61379 | 32150 ft | 417 kts | 284° |
| 2026-04-17 13:17 | 53.14259 | 2.52171 | 32166 ft | 416 kts | 283° |
| 2026-04-17 13:18 | 53.15974 | 2.42964 | 32167 ft | 416 kts | 283° |
| 2026-04-17 13:18 | 53.17683 | 2.33749 | 32165 ft | 416 kts | 283° |
| 2026-04-17 13:19 | 53.19386 | 2.24519 | 32153 ft | 417 kts | 283° |
| 2026-04-17 13:19 | 53.21085 | 2.15265 | 32159 ft | 418 kts | 283° |
| 2026-04-17 13:20 | 53.22785 | 2.05960 | 32148 ft | 420 kts | 282° |
| 2026-04-17 13:20 | 53.24485 | 1.96611 | 32142 ft | 421 kts | 282° |
| 2026-04-17 13:21 | 53.26178 | 1.87253 | 32141 ft | 420 kts | 282° |
| 2026-04-17 13:21 | 53.27855 | 1.77937 | 32141 ft | 417 kts | 282° |
| 2026-04-17 13:22 | 53.29503 | 1.68735 | 32134 ft | 415 kts | 282° |
| 2026-04-17 13:22 | 53.31150 | 1.59488 | 32130 ft | 415 kts | 281° |
| 2026-04-17 13:23 | 53.32788 | 1.50230 | 32131 ft | 415 kts | 281° |
| 2026-04-17 13:23 | 53.34201 | 1.40891 | 32129 ft | 414 kts | 278° |
| 2026-04-17 13:24 | 53.35515 | 1.31496 | 32129 ft | 415 kts | 278° |
| 2026-04-17 13:24 | 53.36847 | 1.22067 | 32128 ft | 417 kts | 278° |
| 2026-04-17 13:25 | 53.38196 | 1.12609 | 32121 ft | 418 kts | 278° |
| 2026-04-17 13:25 | 53.39547 | 1.03124 | 32117 ft | 419 kts | 278° |
| 2026-04-17 13:26 | 53.40892 | 0.93629 | 32111 ft | 419 kts | 277° |
| 2026-04-17 13:26 | 53.42231 | 0.84117 | 32111 ft | 419 kts | 277° |
| 2026-04-17 13:27 | 53.43563 | 0.74585 | 32095 ft | 420 kts | 277° |
| 2026-04-17 13:27 | 53.44889 | 0.65042 | 32096 ft | 420 kts | 277° |
| 2026-04-17 13:28 | 53.46204 | 0.55512 | 32097 ft | 419 kts | 277° |
| 2026-04-17 13:28 | 53.47512 | 0.45988 | 32087 ft | 418 kts | 276° |
| 2026-04-17 13:29 | 53.48800 | 0.36549 | 32088 ft | 417 kts | 276° |
| 2026-04-17 13:29 | 53.50096 | 0.27058 | 32084 ft | 417 kts | 276° |
| 2026-04-17 13:30 | 53.51385 | 0.17576 | 32087 ft | 416 kts | 276° |
| 2026-04-17 13:30 | 53.52666 | 0.08071 | 32074 ft | 417 kts | 276° |
| 2026-04-17 13:31 | 53.53923 | -0.01426 | 32074 ft | 416 kts | 275° |
| 2026-04-17 13:31 | 53.54966 | -0.09387 | 32080 ft | 416 kts | 275° |
| 2026-04-17 13:32 | 53.56207 | -0.18889 | 32081 ft | 416 kts | 275° |
| 2026-04-17 13:32 | 53.57443 | -0.28400 | 32080 ft | 417 kts | 275° |
| 2026-04-17 13:33 | 53.58675 | -0.37936 | 32081 ft | 417 kts | 275° |
| 2026-04-17 13:33 | 53.59903 | -0.47482 | 32086 ft | 418 kts | 274° |
| 2026-04-17 13:34 | 53.61118 | -0.56983 | 32083 ft | 417 kts | 274° |
| 2026-04-17 13:34 | 53.62332 | -0.66551 | 32068 ft | 418 kts | 274° |
| 2026-04-17 13:35 | 53.63541 | -0.76131 | 32054 ft | 417 kts | 274° |
| 2026-04-17 13:35 | 53.64739 | -0.85686 | 32046 ft | 416 kts | 274° |
| 2026-04-17 13:36 | 53.65925 | -0.95215 | 32044 ft | 415 kts | 274° |
| 2026-04-17 13:36 | 53.67108 | -1.04780 | 32009 ft | 417 kts | 273° |
| 2026-04-17 13:37 | 53.68287 | -1.14345 | 32015 ft | 416 kts | 273° |
| 2026-04-17 13:37 | 53.69452 | -1.23871 | 32016 ft | 414 kts | 273° |
| 2026-04-17 13:38 | 53.70606 | -1.33380 | 32020 ft | 414 kts | 272° |
| 2026-04-17 13:38 | 53.72766 | -1.42569 | 32029 ft | 442 kts | 296° |
| 2026-04-17 13:39 | 53.74871 | -1.46490 | 31930 ft | 463 kts | 309° |
| 2026-04-17 13:39 | 53.77578 | -1.49661 | 31318 ft | 479 kts | 319° |
| 2026-04-17 13:39 | 53.80451 | -1.52532 | 30595 ft | 480 kts | 321° |
| 2026-04-17 13:39 | 53.83360 | -1.55345 | 29797 ft | 482 kts | 321° |
| 2026-04-17 13:40 | 53.86271 | -1.58187 | 28858 ft | 483 kts | 321° |
| 2026-04-17 13:40 | 53.89158 | -1.61071 | 27992 ft | 481 kts | 320° |
| 2026-04-17 13:40 | 53.92021 | -1.63986 | 27213 ft | 478 kts | 320° |
| 2026-04-17 13:40 | 53.94843 | -1.66891 | 26603 ft | 472 kts | 320° |
| 2026-04-17 13:41 | 53.97628 | -1.69773 | 25963 ft | 467 kts | 320° |
| 2026-04-17 13:41 | 54.00392 | -1.72634 | 25374 ft | 462 kts | 320° |
| 2026-04-17 13:41 | 54.03102 | -1.75432 | 24895 ft | 447 kts | 320° |
| 2026-04-17 13:41 | 54.05772 | -1.78197 | 24095 ft | 453 kts | 321° |
| 2026-04-17 13:42 | 54.08484 | -1.81016 | 23300 ft | 459 kts | 321° |
| 2026-04-17 13:42 | 54.11214 | -1.83796 | 22505 ft | 458 kts | 325° |
| 2026-04-17 13:42 | 54.14260 | -1.85607 | 21794 ft | 470 kts | 344° |
| 2026-04-17 13:42 | 54.17541 | -1.85865 | 21061 ft | 479 kts | 3° |
| 2026-04-17 13:43 | 54.20813 | -1.84900 | 20453 ft | 470 kts | 8° |
| 2026-04-17 13:43 | 54.23983 | -1.83798 | 19656 ft | 460 kts | 8° |
| 2026-04-17 13:43 | 54.27107 | -1.82711 | 18980 ft | 458 kts | 8° |
| 2026-04-17 13:43 | 54.30207 | -1.81675 | 18301 ft | 450 kts | 7° |
| 2026-04-17 13:44 | 54.33259 | -1.80694 | 17522 ft | 441 kts | 7° |
| 2026-04-17 13:44 | 54.36249 | -1.79753 | 16841 ft | 436 kts | 7° |
| 2026-04-17 13:44 | 54.39248 | -1.78814 | 16182 ft | 438 kts | 7° |
| 2026-04-17 13:44 | 54.42256 | -1.77869 | 15527 ft | 442 kts | 7° |
| 2026-04-17 13:45 | 54.45280 | -1.76913 | 14486 ft | 440 kts | 7° |
| 2026-04-17 13:45 | 54.48262 | -1.75965 | 13570 ft | 432 kts | 7° |
| 2026-04-17 13:45 | 54.51190 | -1.75033 | 12659 ft | 423 kts | 7° |
| 2026-04-17 13:45 | 54.54016 | -1.74131 | 12262 ft | 403 kts | 7° |
| 2026-04-17 13:46 | 54.56762 | -1.73256 | 11441 ft | 398 kts | 7° |
| 2026-04-17 13:46 | 54.59443 | -1.72401 | 10897 ft | 386 kts | 7° |
| 2026-04-17 13:46 | 54.61979 | -1.71591 | 10728 ft | 366 kts | 6° |
| 2026-04-17 13:46 | 54.64419 | -1.70810 | 10594 ft | 347 kts | 6° |
| 2026-04-17 13:47 | 54.66756 | -1.70063 | 10238 ft | 339 kts | 6° |
| 2026-04-17 13:47 | 54.69056 | -1.69329 | 9858 ft | 333 kts | 6° |
| 2026-04-17 13:47 | 54.71310 | -1.68611 | 9473 ft | 327 kts | 6° |
| 2026-04-17 13:47 | 54.73531 | -1.67907 | 9072 ft | 322 kts | 6° |
| 2026-04-17 13:48 | 54.75718 | -1.67221 | 8665 ft | 317 kts | 6° |
| 2026-04-17 13:48 | 54.77870 | -1.66545 | 8282 ft | 313 kts | 6° |
| 2026-04-17 13:48 | 54.79986 | -1.65725 | 7869 ft | 312 kts | 21° |
| 2026-04-17 13:48 | 54.81692 | -1.63525 | 7489 ft | 304 kts | 55° |
| 2026-04-17 13:49 | 54.82827 | -1.60453 | 7150 ft | 302 kts | 63° |
| 2026-04-17 13:49 | 54.83888 | -1.57301 | 6796 ft | 304 kts | 64° |
| 2026-04-17 13:49 | 54.84942 | -1.54116 | 6433 ft | 305 kts | 64° |
| 2026-04-17 13:49 | 54.85993 | -1.50915 | 6136 ft | 303 kts | 64° |
| 2026-04-17 13:50 | 54.87018 | -1.47790 | 6076 ft | 293 kts | 64° |
| 2026-04-17 13:50 | 54.88013 | -1.44758 | 5986 ft | 284 kts | 64° |
| 2026-04-17 13:50 | 54.88980 | -1.41829 | 5908 ft | 275 kts | 64° |
| 2026-04-17 13:50 | 54.89923 | -1.38977 | 5657 ft | 273 kts | 64° |
| 2026-04-17 13:51 | 54.90867 | -1.36091 | 5309 ft | 275 kts | 64° |
| 2026-04-17 13:51 | 54.91806 | -1.33214 | 4948 ft | 272 kts | 64° |
| 2026-04-17 13:51 | 54.92736 | -1.30365 | 4554 ft | 270 kts | 64° |
| 2026-04-17 13:51 | 54.93871 | -1.27800 | 4205 ft | 268 kts | 36° |
| 2026-04-17 13:52 | 54.95558 | -1.26751 | 3938 ft | 253 kts | 355° |
| 2026-04-17 13:52 | 54.97133 | -1.27578 | 3675 ft | 227 kts | 313° |
| 2026-04-17 13:52 | 54.98099 | -1.29554 | 3451 ft | 212 kts | 303° |
| 2026-04-17 13:52 | 54.99246 | -1.31213 | 3187 ft | 214 kts | 315° |
| 2026-04-17 13:53 | 55.00427 | -1.32749 | 2921 ft | 210 kts | 314° |
| 2026-04-17 13:53 | 55.01580 | -1.34280 | 2652 ft | 207 kts | 314° |
| 2026-04-17 13:53 | 55.02715 | -1.35780 | 2414 ft | 203 kts | 315° |
| 2026-04-17 13:53 | 55.03813 | -1.37225 | 2218 ft | 195 kts | 315° |
| 2026-04-17 13:54 | 55.05871 | -1.39922 | 2219 ft | 183 kts | 314° |
| 2026-04-17 13:54 | 55.06904 | -1.41283 | 2220 ft | 184 kts | 314° |
| 2026-04-17 13:55 | 55.08909 | -1.43983 | 2213 ft | 179 kts | 303° |
| 2026-04-17 13:55 | 55.09296 | -1.45791 | 2148 ft | 148 kts | 254° |
| 2026-04-17 13:55 | 55.08862 | -1.49185 | 2007 ft | 142 kts | 245° |
| 2026-04-17 13:56 | 55.08239 | -1.52175 | 1997 ft | 125 kts | 240° |
| 2026-04-17 13:56 | 55.07881 | -1.53572 | 1994 ft | 129 kts | 239° |
| 2026-04-17 13:56 | 55.07499 | -1.55018 | 1863 ft | 133 kts | 238° |
| 2026-04-17 13:57 | 55.07107 | -1.56463 | 1697 ft | 131 kts | 237° |
| 2026-04-17 13:57 | 55.06716 | -1.57952 | 1510 ft | 137 kts | 240° |
| 2026-04-17 13:57 | 55.05924 | -1.60942 | 1129 ft | 136 kts | 241° |
| 2026-04-17 13:58 | 55.05523 | -1.62450 | 937 ft | 137 kts | 242° |
| 2026-04-17 13:58 | 55.04741 | -1.65413 | 554 ft | 130 kts | 242° |
| 2026-04-17 13:58 | 55.04358 | -1.66830 | 395 ft | 128 kts | 244° |
| 2026-04-17 13:59 | 55.03713 | -1.69280 | 254 ft | 64 kts | 245° |
| 2026-04-17 13:59 | 55.03605 | -1.69686 | 258 ft | 22 kts | 245° |
| 2026-04-17 13:59 | 55.03585 | -1.69967 | 261 ft | 25 kts | 273° |
| 2026-04-17 14:00 | 55.03596 | -1.70286 | 265 ft | 24 kts | 275° |
| 2026-04-17 14:00 | 55.03598 | -1.70329 | 266 ft | 3 kts | 276° |
| 2026-04-17 14:00 | 55.03603 | -1.70388 | 266 ft | 8 kts | 285° |
| 2026-04-17 14:00 | 55.03667 | -1.70437 | 266 ft | 14 kts | 2° |
| 2026-04-17 14:01 | 55.03777 | -1.70441 | 266 ft | 13 kts | 332° |
| 2026-04-17 14:01 | 55.03802 | -1.70542 | 266 ft | 5 kts | 278° |
| 2026-04-17 14:01 | 55.03805 | -1.70646 | 266 ft | 12 kts | 273° |
| 2026-04-17 14:01 | 55.03802 | -1.70740 | 266 ft | 6 kts | 231° |
| 2026-04-17 14:02 | 55.03761 | -1.70757 | 266 ft | 5 kts | 184° |
| 2026-04-17 14:02 | 55.03742 | -1.70760 | 266 ft | 1 kts | 184° |
| 2026-04-17 14:02 | 55.03736 | -1.70760 | 266 ft | 1 kts | 184° |
| 2026-04-17 14:02 | 55.03735 | -1.70760 | 266 ft | 0 kts | 184° |